sensor_id;sensor_type;location;lat;lon;timestamp;pressure;altitude;pressure_sealevel;temperature;humidity
36234;BME280;43467;50.890;5.982;2022-07-17T00:01:28;101369.38;;;20.05;42.53
36234;BME280;43467;50.890;5.982;2022-07-17T00:03:53;101357.09;;;20.01;42.41
36234;BME280;43467;50.890;5.982;2022-07-17T00:06:19;101365.38;;;19.98;42.60
36234;BME280;43467;50.890;5.982;2022-07-17T00:08:44;101366.66;;;19.92;43.26
36234;BME280;43467;50.890;5.982;2022-07-17T00:11:10;101360.81;;;19.86;43.54
36234;BME280;43467;50.890;5.982;2022-07-17T00:13:35;101355.66;;;19.83;43.31
36234;BME280;43467;50.890;5.982;2022-07-17T00:16:00;101358.63;;;19.78;43.70
36234;BME280;43467;50.890;5.982;2022-07-17T00:18:26;101359.44;;;19.66;44.25
36234;BME280;43467;50.890;5.982;2022-07-17T00:20:51;101353.72;;;19.58;44.64
36234;BME280;43467;50.890;5.982;2022-07-17T00:23:17;101363.13;;;19.51;44.30
36234;BME280;43467;50.890;5.982;2022-07-17T00:25:42;101356.44;;;19.44;44.21
36234;BME280;43467;50.890;5.982;2022-07-17T00:28:08;101355.06;;;19.37;44.66
36234;BME280;43467;50.890;5.982;2022-07-17T00:30:33;101355.28;;;19.34;44.95
36234;BME280;43467;50.890;5.982;2022-07-17T00:32:59;101352.00;;;19.29;45.28
36234;BME280;43467;50.890;5.982;2022-07-17T00:35:24;101357.38;;;19.29;44.83
36234;BME280;43467;50.890;5.982;2022-07-17T00:37:50;101355.56;;;19.29;44.77
36234;BME280;43467;50.890;5.982;2022-07-17T00:40:21;101359.19;;;19.28;45.51
36234;BME280;43467;50.890;5.982;2022-07-17T00:42:47;101371.59;;;19.31;45.05
36234;BME280;43467;50.890;5.982;2022-07-17T00:45:14;101368.13;;;19.29;45.12
36234;BME280;43467;50.890;5.982;2022-07-17T00:47:56;101363.69;;;19.28;45.65
36234;BME280;43467;50.890;5.982;2022-07-17T00:50:29;101362.97;;;19.26;45.49
36234;BME280;43467;50.890;5.982;2022-07-17T00:52:55;101360.66;;;19.20;45.37
36234;BME280;43467;50.890;5.982;2022-07-17T00:55:21;101356.44;;;19.16;46.00
36234;BME280;43467;50.890;5.982;2022-07-17T00:57:48;101355.09;;;19.09;46.30
36234;BME280;43467;50.890;5.982;2022-07-17T01:00:16;101354.22;;;19.08;45.80
36234;BME280;43467;50.890;5.982;2022-07-17T01:02:45;101349.16;;;19.03;46.18
36234;BME280;43467;50.890;5.982;2022-07-17T01:05:12;101348.78;;;18.95;46.80
36234;BME280;43467;50.890;5.982;2022-07-17T01:07:37;101344.19;;;18.97;46.51
36234;BME280;43467;50.890;5.982;2022-07-17T01:10:03;101331.63;;;18.98;46.44
36234;BME280;43467;50.890;5.982;2022-07-17T01:12:28;101338.34;;;18.91;46.75
36234;BME280;43467;50.890;5.982;2022-07-17T01:14:55;101331.44;;;18.87;46.88
36234;BME280;43467;50.890;5.982;2022-07-17T01:17:22;101332.50;;;18.84;47.16
36234;BME280;43467;50.890;5.982;2022-07-17T01:19:48;101336.53;;;18.77;47.55
36234;BME280;43467;50.890;5.982;2022-07-17T01:22:14;101332.00;;;18.64;48.18
36234;BME280;43467;50.890;5.982;2022-07-17T01:24:40;101331.06;;;18.65;47.61
36234;BME280;43467;50.890;5.982;2022-07-17T01:27:05;101328.38;;;18.65;48.36
36234;BME280;43467;50.890;5.982;2022-07-17T01:29:31;101330.19;;;18.64;47.86
36234;BME280;43467;50.890;5.982;2022-07-17T01:31:57;101329.31;;;18.64;47.40
36234;BME280;43467;50.890;5.982;2022-07-17T01:34:22;101331.59;;;18.55;48.26
36234;BME280;43467;50.890;5.982;2022-07-17T01:36:47;101335.34;;;18.53;47.79
36234;BME280;43467;50.890;5.982;2022-07-17T01:39:13;101337.09;;;18.54;47.92
36234;BME280;43467;50.890;5.982;2022-07-17T01:41:38;101330.31;;;18.47;48.16
36234;BME280;43467;50.890;5.982;2022-07-17T01:44:05;101334.53;;;18.51;47.67
36234;BME280;43467;50.890;5.982;2022-07-17T01:46:31;101333.00;;;18.47;48.44
36234;BME280;43467;50.890;5.982;2022-07-17T01:48:57;101336.66;;;18.46;48.40
36234;BME280;43467;50.890;5.982;2022-07-17T01:51:22;101339.41;;;18.44;48.11
36234;BME280;43467;50.890;5.982;2022-07-17T01:53:48;101333.56;;;18.38;48.95
36234;BME280;43467;50.890;5.982;2022-07-17T01:56:13;101325.56;;;18.22;48.87
36234;BME280;43467;50.890;5.982;2022-07-17T01:58:38;101331.34;;;18.30;49.05
36234;BME280;43467;50.890;5.982;2022-07-17T02:01:04;101332.38;;;18.28;48.97
36234;BME280;43467;50.890;5.982;2022-07-17T02:03:29;101325.50;;;18.24;49.25
36234;BME280;43467;50.890;5.982;2022-07-17T02:05:55;101313.22;;;18.20;49.25
36234;BME280;43467;50.890;5.982;2022-07-17T02:08:20;101315.22;;;18.16;49.11
36234;BME280;43467;50.890;5.982;2022-07-17T02:10:45;101314.16;;;18.19;48.88
36234;BME280;43467;50.890;5.982;2022-07-17T02:13:11;101307.59;;;17.94;49.54
36234;BME280;43467;50.890;5.982;2022-07-17T02:15:36;101304.03;;;17.94;49.07
36234;BME280;43467;50.890;5.982;2022-07-17T02:18:02;101311.34;;;17.92;49.53
36234;BME280;43467;50.890;5.982;2022-07-17T02:20:27;101312.28;;;17.91;49.78
36234;BME280;43467;50.890;5.982;2022-07-17T02:22:53;101314.88;;;17.92;49.81
36234;BME280;43467;50.890;5.982;2022-07-17T02:25:18;101311.13;;;17.95;49.75
36234;BME280;43467;50.890;5.982;2022-07-17T02:27:43;101317.16;;;17.84;50.24
36234;BME280;43467;50.890;5.982;2022-07-17T02:30:14;101326.13;;;17.83;50.21
36234;BME280;43467;50.890;5.982;2022-07-17T02:32:41;101326.31;;;17.80;49.78
36234;BME280;43467;50.890;5.982;2022-07-17T02:35:08;101339.16;;;17.89;49.21
36234;BME280;43467;50.890;5.982;2022-07-17T02:37:34;101335.53;;;17.90;49.11
36234;BME280;43467;50.890;5.982;2022-07-17T02:39:59;101335.25;;;17.95;48.81
36234;BME280;43467;50.890;5.982;2022-07-17T02:42:27;101335.19;;;17.96;49.11
36234;BME280;43467;50.890;5.982;2022-07-17T02:44:54;101337.00;;;17.96;49.36
36234;BME280;43467;50.890;5.982;2022-07-17T02:47:24;101331.03;;;17.91;49.77
36234;BME280;43467;50.890;5.982;2022-07-17T02:49:50;101334.91;;;17.85;49.95
36234;BME280;43467;50.890;5.982;2022-07-17T02:52:15;101334.84;;;17.87;49.89
36234;BME280;43467;50.890;5.982;2022-07-17T02:54:41;101325.88;;;17.88;49.70
36234;BME280;43467;50.890;5.982;2022-07-17T02:57:06;101337.59;;;17.85;49.98
36234;BME280;43467;50.890;5.982;2022-07-17T02:59:32;101342.97;;;17.85;49.67
36234;BME280;43467;50.890;5.982;2022-07-17T03:01:57;101344.19;;;17.80;49.84
36234;BME280;43467;50.890;5.982;2022-07-17T03:04:23;101341.84;;;17.74;50.48
36234;BME280;43467;50.890;5.982;2022-07-17T03:06:48;101336.69;;;17.55;51.37
36234;BME280;43467;50.890;5.982;2022-07-17T03:09:13;101339.44;;;17.53;51.48
36234;BME280;43467;50.890;5.982;2022-07-17T03:11:39;101333.56;;;17.47;51.98
36234;BME280;43467;50.890;5.982;2022-07-17T03:14:04;101333.47;;;17.33;52.16
36234;BME280;43467;50.890;5.982;2022-07-17T03:16:30;101350.75;;;17.27;52.44
36234;BME280;43467;50.890;5.982;2022-07-17T03:18:55;101354.72;;;17.36;51.81
36234;BME280;43467;50.890;5.982;2022-07-17T03:21:20;101353.88;;;17.35;51.87
36234;BME280;43467;50.890;5.982;2022-07-17T03:23:46;101339.38;;;17.39;51.52
36234;BME280;43467;50.890;5.982;2022-07-17T03:26:11;101335.88;;;17.37;52.19
36234;BME280;43467;50.890;5.982;2022-07-17T03:28:36;101335.28;;;17.32;52.73
36234;BME280;43467;50.890;5.982;2022-07-17T03:31:02;101337.94;;;17.32;52.71
36234;BME280;43467;50.890;5.982;2022-07-17T03:33:27;101330.72;;;17.34;52.11
36234;BME280;43467;50.890;5.982;2022-07-17T03:35:53;101334.50;;;17.30;52.29
36234;BME280;43467;50.890;5.982;2022-07-17T03:38:18;101337.13;;;17.32;52.84
36234;BME280;43467;50.890;5.982;2022-07-17T03:40:43;101327.69;;;17.25;52.39
36234;BME280;43467;50.890;5.982;2022-07-17T03:43:09;101332.69;;;17.15;52.82
36234;BME280;43467;50.890;5.982;2022-07-17T03:45:34;101332.78;;;17.13;53.36
36234;BME280;43467;50.890;5.982;2022-07-17T03:48:00;101333.97;;;17.08;53.33
36234;BME280;43467;50.890;5.982;2022-07-17T03:50:25;101326.78;;;16.93;54.19
36234;BME280;43467;50.890;5.982;2022-07-17T03:52:51;101331.31;;;16.75;54.22
36234;BME280;43467;50.890;5.982;2022-07-17T03:55:16;101329.81;;;16.87;53.75
36234;BME280;43467;50.890;5.982;2022-07-17T03:57:41;101322.56;;;16.89;54.01
36234;BME280;43467;50.890;5.982;2022-07-17T04:00:07;101326.72;;;16.94;53.47
36234;BME280;43467;50.890;5.982;2022-07-17T04:02:33;101322.22;;;16.95;53.23
36234;BME280;43467;50.890;5.982;2022-07-17T04:04:58;101331.97;;;16.96;53.17
36234;BME280;43467;50.890;5.982;2022-07-17T04:07:24;101339.84;;;16.99;53.56
36234;BME280;43467;50.890;5.982;2022-07-17T04:09:58;101340.84;;;16.96;53.47
36234;BME280;43467;50.890;5.982;2022-07-17T04:12:25;101353.72;;;16.90;54.11
36234;BME280;43467;50.890;5.982;2022-07-17T04:14:50;101362.59;;;16.90;53.91
36234;BME280;43467;50.890;5.982;2022-07-17T04:17:16;101361.03;;;16.86;54.22
36234;BME280;43467;50.890;5.982;2022-07-17T04:19:42;101346.19;;;16.81;54.73
36234;BME280;43467;50.890;5.982;2022-07-17T04:22:07;101340.41;;;16.88;54.84
36234;BME280;43467;50.890;5.982;2022-07-17T04:24:32;101349.06;;;16.93;54.75
36234;BME280;43467;50.890;5.982;2022-07-17T04:26:58;101354.94;;;17.00;54.25
36234;BME280;43467;50.890;5.982;2022-07-17T04:29:23;101354.16;;;16.98;55.19
36234;BME280;43467;50.890;5.982;2022-07-17T04:31:48;101355.47;;;17.06;54.75
36234;BME280;43467;50.890;5.982;2022-07-17T04:34:14;101353.50;;;17.10;54.47
36234;BME280;43467;50.890;5.982;2022-07-17T04:36:40;101353.88;;;17.19;54.12
36234;BME280;43467;50.890;5.982;2022-07-17T04:39:05;101358.78;;;17.27;53.91
36234;BME280;43467;50.890;5.982;2022-07-17T04:41:31;101363.88;;;17.32;54.62
36234;BME280;43467;50.890;5.982;2022-07-17T04:43:56;101365.16;;;17.40;53.47
36234;BME280;43467;50.890;5.982;2022-07-17T04:46:21;101367.84;;;17.40;53.35
36234;BME280;43467;50.890;5.982;2022-07-17T04:48:47;101357.16;;;17.56;53.29
36234;BME280;43467;50.890;5.982;2022-07-17T04:51:12;101363.91;;;17.63;53.14
36234;BME280;43467;50.890;5.982;2022-07-17T04:53:37;101349.66;;;17.62;52.94
36234;BME280;43467;50.890;5.982;2022-07-17T04:56:03;101356.31;;;17.71;52.94
36234;BME280;43467;50.890;5.982;2022-07-17T04:58:29;101346.94;;;17.78;52.26
36234;BME280;43467;50.890;5.982;2022-07-17T05:00:54;101343.31;;;17.79;52.80
36234;BME280;43467;50.890;5.982;2022-07-17T05:03:19;101349.09;;;17.87;52.05
36234;BME280;43467;50.890;5.982;2022-07-17T05:05:45;101345.56;;;17.87;52.38
36234;BME280;43467;50.890;5.982;2022-07-17T05:08:10;101348.91;;;17.90;52.51
36234;BME280;43467;50.890;5.982;2022-07-17T05:10:36;101356.78;;;17.93;52.06
36234;BME280;43467;50.890;5.982;2022-07-17T05:13:01;101359.88;;;18.01;51.80
36234;BME280;43467;50.890;5.982;2022-07-17T05:15:26;101366.63;;;18.08;51.54
36234;BME280;43467;50.890;5.982;2022-07-17T05:17:52;101368.84;;;18.16;51.73
36234;BME280;43467;50.890;5.982;2022-07-17T05:20:17;101371.25;;;18.21;50.62
36234;BME280;43467;50.890;5.982;2022-07-17T05:22:43;101367.28;;;18.12;51.12
36234;BME280;43467;50.890;5.982;2022-07-17T05:25:08;101385.00;;;18.15;50.85
36234;BME280;43467;50.890;5.982;2022-07-17T05:27:34;101386.06;;;18.12;50.51
36234;BME280;43467;50.890;5.982;2022-07-17T05:29:59;101387.94;;;18.10;51.42
36234;BME280;43467;50.890;5.982;2022-07-17T05:32:24;101387.00;;;18.11;51.84
36234;BME280;43467;50.890;5.982;2022-07-17T05:34:50;101384.31;;;18.11;52.57
36234;BME280;43467;50.890;5.982;2022-07-17T05:37:15;101382.44;;;18.13;52.59
36234;BME280;43467;50.890;5.982;2022-07-17T05:39:41;101373.69;;;18.09;52.91
36234;BME280;43467;50.890;5.982;2022-07-17T05:42:06;101368.56;;;18.21;52.83
36234;BME280;43467;50.890;5.982;2022-07-17T05:44:31;101378.50;;;18.19;53.07
36234;BME280;43467;50.890;5.982;2022-07-17T05:46:57;101381.97;;;18.21;52.50
36234;BME280;43467;50.890;5.982;2022-07-17T05:49:22;101381.44;;;18.14;53.26
36234;BME280;43467;50.890;5.982;2022-07-17T05:51:48;101379.56;;;18.16;53.04
36234;BME280;43467;50.890;5.982;2022-07-17T05:54:13;101385.34;;;18.24;52.53
36234;BME280;43467;50.890;5.982;2022-07-17T05:56:38;101365.44;;;18.28;52.02
36234;BME280;43467;50.890;5.982;2022-07-17T05:59:04;101374.38;;;18.43;51.06
36234;BME280;43467;50.890;5.982;2022-07-17T06:01:29;101387.06;;;18.55;50.61
36234;BME280;43467;50.890;5.982;2022-07-17T06:03:55;101383.75;;;18.66;50.54
36234;BME280;43467;50.890;5.982;2022-07-17T06:06:20;101380.97;;;18.67;51.10
36234;BME280;43467;50.890;5.982;2022-07-17T06:08:46;101386.16;;;18.70;50.69
36234;BME280;43467;50.890;5.982;2022-07-17T06:11:12;101389.59;;;18.72;50.52
36234;BME280;43467;50.890;5.982;2022-07-17T06:13:37;101382.13;;;18.77;50.56
36234;BME280;43467;50.890;5.982;2022-07-17T06:16:03;101378.09;;;18.84;50.59
36234;BME280;43467;50.890;5.982;2022-07-17T06:18:29;101372.38;;;18.90;50.37
36234;BME280;43467;50.890;5.982;2022-07-17T06:20:54;101383.00;;;18.92;50.24
36234;BME280;43467;50.890;5.982;2022-07-17T06:23:19;101380.81;;;18.98;49.76
36234;BME280;43467;50.890;5.982;2022-07-17T06:25:45;101380.69;;;19.00;49.64
36234;BME280;43467;50.890;5.982;2022-07-17T06:28:10;101382.16;;;19.06;49.75
36234;BME280;43467;50.890;5.982;2022-07-17T06:30:36;101379.06;;;19.12;49.08
36234;BME280;43467;50.890;5.982;2022-07-17T06:33:02;101365.75;;;19.10;49.09
36234;BME280;43467;50.890;5.982;2022-07-17T06:35:27;101368.44;;;19.10;49.27
36234;BME280;43467;50.890;5.982;2022-07-17T06:37:56;101365.06;;;19.21;49.27
36234;BME280;43467;50.890;5.982;2022-07-17T06:40:21;101367.53;;;19.24;48.65
36234;BME280;43467;50.890;5.982;2022-07-17T06:42:46;101370.31;;;19.36;48.44
36234;BME280;43467;50.890;5.982;2022-07-17T06:45:12;101374.53;;;19.40;48.20
36234;BME280;43467;50.890;5.982;2022-07-17T06:47:38;101381.16;;;19.49;47.83
36234;BME280;43467;50.890;5.982;2022-07-17T06:50:03;101372.25;;;19.48;48.64
36234;BME280;43467;50.890;5.982;2022-07-17T06:52:29;101368.16;;;19.70;47.77
36234;BME280;43467;50.890;5.982;2022-07-17T06:54:54;101369.94;;;19.83;47.52
36234;BME280;43467;50.890;5.982;2022-07-17T06:57:20;101373.75;;;19.93;46.75
36234;BME280;43467;50.890;5.982;2022-07-17T06:59:45;101362.28;;;20.04;47.01
36234;BME280;43467;50.890;5.982;2022-07-17T07:02:10;101363.03;;;20.06;46.71
36234;BME280;43467;50.890;5.982;2022-07-17T07:04:36;101359.81;;;20.14;46.40
36234;BME280;43467;50.890;5.982;2022-07-17T07:07:01;101356.31;;;20.13;46.01
36234;BME280;43467;50.890;5.982;2022-07-17T07:09:26;101360.38;;;20.19;45.41
36234;BME280;43467;50.890;5.982;2022-07-17T07:11:52;101364.72;;;20.21;45.84
36234;BME280;43467;50.890;5.982;2022-07-17T07:14:17;101359.75;;;20.28;45.43
36234;BME280;43467;50.890;5.982;2022-07-17T07:16:43;101358.84;;;20.29;45.63
36234;BME280;43467;50.890;5.982;2022-07-17T07:19:08;101360.44;;;20.31;46.05
36234;BME280;43467;50.890;5.982;2022-07-17T07:21:33;101366.91;;;20.29;45.78
36234;BME280;43467;50.890;5.982;2022-07-17T07:23:59;101370.91;;;20.36;45.43
36234;BME280;43467;50.890;5.982;2022-07-17T07:26:24;101368.63;;;20.42;45.36
36234;BME280;43467;50.890;5.982;2022-07-17T07:28:50;101364.75;;;20.47;45.70
36234;BME280;43467;50.890;5.982;2022-07-17T07:31:15;101367.78;;;20.55;45.26
36234;BME280;43467;50.890;5.982;2022-07-17T07:33:44;101359.84;;;20.53;44.97
36234;BME280;43467;50.890;5.982;2022-07-17T07:36:09;101376.00;;;20.66;44.43
36234;BME280;43467;50.890;5.982;2022-07-17T07:38:35;101375.69;;;20.70;44.47
36234;BME280;43467;50.890;5.982;2022-07-17T07:41:00;101372.53;;;20.76;44.62
36234;BME280;43467;50.890;5.982;2022-07-17T07:43:26;101373.84;;;20.83;44.00
36234;BME280;43467;50.890;5.982;2022-07-17T07:45:51;101378.81;;;20.90;44.04
36234;BME280;43467;50.890;5.982;2022-07-17T07:48:16;101369.44;;;20.82;43.37
36234;BME280;43467;50.890;5.982;2022-07-17T07:50:42;101371.28;;;20.82;43.48
36234;BME280;43467;50.890;5.982;2022-07-17T07:53:08;101379.13;;;20.98;44.01
36234;BME280;43467;50.890;5.982;2022-07-17T07:55:33;101385.25;;;21.00;43.54
36234;BME280;43467;50.890;5.982;2022-07-17T07:58:07;101379.53;;;20.92;44.13
36234;BME280;43467;50.890;5.982;2022-07-17T08:00:34;101380.09;;;20.97;44.22
36234;BME280;43467;50.890;5.982;2022-07-17T08:03:00;101396.25;;;20.97;44.88
36234;BME280;43467;50.890;5.982;2022-07-17T08:05:25;101392.13;;;20.91;44.94
36234;BME280;43467;50.890;5.982;2022-07-17T08:07:51;101399.56;;;20.87;45.22
36234;BME280;43467;50.890;5.982;2022-07-17T08:10:16;101393.13;;;20.90;44.60
36234;BME280;43467;50.890;5.982;2022-07-17T08:12:42;101394.09;;;20.89;43.76
36234;BME280;43467;50.890;5.982;2022-07-17T08:15:07;101396.69;;;20.78;43.18
36234;BME280;43467;50.890;5.982;2022-07-17T08:17:33;101403.13;;;20.75;43.01
36234;BME280;43467;50.890;5.982;2022-07-17T08:19:58;101404.63;;;20.79;42.69
36234;BME280;43467;50.890;5.982;2022-07-17T08:22:23;101407.53;;;20.76;43.15
36234;BME280;43467;50.890;5.982;2022-07-17T08:24:49;101406.91;;;20.85;43.64
36234;BME280;43467;50.890;5.982;2022-07-17T08:27:14;101409.28;;;21.03;43.05
36234;BME280;43467;50.890;5.982;2022-07-17T08:29:40;101409.78;;;21.08;42.85
36234;BME280;43467;50.890;5.982;2022-07-17T08:32:05;101420.19;;;21.26;42.95
36234;BME280;43467;50.890;5.982;2022-07-17T08:34:31;101416.38;;;21.29;41.63
36234;BME280;43467;50.890;5.982;2022-07-17T08:36:56;101410.78;;;21.32;41.77
36234;BME280;43467;50.890;5.982;2022-07-17T08:39:22;101411.09;;;21.40;40.65
36234;BME280;43467;50.890;5.982;2022-07-17T08:41:47;101402.81;;;21.43;40.47
36234;BME280;43467;50.890;5.982;2022-07-17T08:44:12;101404.47;;;21.57;40.05
36234;BME280;43467;50.890;5.982;2022-07-17T08:46:38;101404.56;;;21.68;39.38
36234;BME280;43467;50.890;5.982;2022-07-17T08:49:05;101398.63;;;21.75;40.11
36234;BME280;43467;50.890;5.982;2022-07-17T08:51:31;101383.16;;;21.77;40.39
36234;BME280;43467;50.890;5.982;2022-07-17T08:53:57;101387.25;;;21.83;40.37
36234;BME280;43467;50.890;5.982;2022-07-17T08:56:23;101400.09;;;21.79;40.93
36234;BME280;43467;50.890;5.982;2022-07-17T08:58:49;101402.00;;;21.90;40.72
36234;BME280;43467;50.890;5.982;2022-07-17T09:01:16;101385.09;;;21.88;40.78
36234;BME280;43467;50.890;5.982;2022-07-17T09:03:53;101395.44;;;21.94;40.63
36234;BME280;43467;50.890;5.982;2022-07-17T09:06:20;101396.59;;;21.90;40.81
36234;BME280;43467;50.890;5.982;2022-07-17T09:08:45;101397.41;;;21.79;40.08
36234;BME280;43467;50.890;5.982;2022-07-17T09:11:11;101397.84;;;21.73;39.95
36234;BME280;43467;50.890;5.982;2022-07-17T09:13:36;101399.59;;;21.74;40.10
36234;BME280;43467;50.890;5.982;2022-07-17T09:16:09;101391.28;;;21.65;39.75
36234;BME280;43467;50.890;5.982;2022-07-17T09:18:47;101385.00;;;21.77;40.07
36234;BME280;43467;50.890;5.982;2022-07-17T09:21:19;101390.09;;;21.69;39.93
36234;BME280;43467;50.890;5.982;2022-07-17T09:23:45;101386.44;;;21.70;40.04
36234;BME280;43467;50.890;5.982;2022-07-17T09:26:11;101380.41;;;21.66;39.90
36234;BME280;43467;50.890;5.982;2022-07-17T09:28:46;101381.00;;;21.83;39.58
36234;BME280;43467;50.890;5.982;2022-07-17T09:31:11;101382.84;;;21.82;39.74
36234;BME280;43467;50.890;5.982;2022-07-17T09:33:37;101372.34;;;21.90;39.22
36234;BME280;43467;50.890;5.982;2022-07-17T09:36:08;101385.44;;;22.07;38.49
36234;BME280;43467;50.890;5.982;2022-07-17T09:38:39;101379.56;;;22.13;38.88
36234;BME280;43467;50.890;5.982;2022-07-17T09:41:10;101375.31;;;22.22;38.38
36234;BME280;43467;50.890;5.982;2022-07-17T09:43:55;101380.09;;;22.18;37.43
36234;BME280;43467;50.890;5.982;2022-07-17T09:46:24;101381.06;;;22.17;37.83
36234;BME280;43467;50.890;5.982;2022-07-17T09:48:55;101384.91;;;22.26;37.73
36234;BME280;43467;50.890;5.982;2022-07-17T09:51:34;101393.16;;;22.36;37.38
36234;BME280;43467;50.890;5.982;2022-07-17T09:54:04;101382.91;;;22.41;37.05
36234;BME280;43467;50.890;5.982;2022-07-17T09:56:32;101379.94;;;22.44;36.83
36234;BME280;43467;50.890;5.982;2022-07-17T09:59:24;101387.94;;;22.45;37.18
36234;BME280;43467;50.890;5.982;2022-07-17T10:01:51;101393.78;;;22.39;37.42
36234;BME280;43467;50.890;5.982;2022-07-17T10:04:16;101395.34;;;22.31;37.58
36234;BME280;43467;50.890;5.982;2022-07-17T10:06:42;101398.47;;;22.13;37.95
36234;BME280;43467;50.890;5.982;2022-07-17T10:09:09;101390.59;;;22.10;38.10
36234;BME280;43467;50.890;5.982;2022-07-17T10:14:08;101398.28;;;22.28;38.12
36234;BME280;43467;50.890;5.982;2022-07-17T10:16:35;101397.94;;;22.32;38.20
36234;BME280;43467;50.890;5.982;2022-07-17T10:19:14;101396.72;;;22.36;37.65
36234;BME280;43467;50.890;5.982;2022-07-17T10:22:00;101414.25;;;22.31;37.88
36234;BME280;43467;50.890;5.982;2022-07-17T10:24:27;101402.25;;;22.35;37.54
36234;BME280;43467;50.890;5.982;2022-07-17T10:26:53;101404.06;;;22.34;37.36
36234;BME280;43467;50.890;5.982;2022-07-17T10:32:00;101396.53;;;22.50;37.49
36234;BME280;43467;50.890;5.982;2022-07-17T10:34:52;101407.84;;;22.55;36.90
36234;BME280;43467;50.890;5.982;2022-07-17T10:37:23;101402.69;;;22.52;36.73
36234;BME280;43467;50.890;5.982;2022-07-17T10:42:44;101387.38;;;22.64;37.22
36234;BME280;43467;50.890;5.982;2022-07-17T10:45:19;101389.81;;;22.56;36.70
36234;BME280;43467;50.890;5.982;2022-07-17T10:50:11;101380.75;;;22.68;37.26
36234;BME280;43467;50.890;5.982;2022-07-17T10:52:36;101381.53;;;22.81;36.62
36234;BME280;43467;50.890;5.982;2022-07-17T10:55:03;101385.72;;;22.85;36.15
36234;BME280;43467;50.890;5.982;2022-07-17T10:57:31;101392.72;;;22.88;35.70
36234;BME280;43467;50.890;5.982;2022-07-17T10:59:57;101382.31;;;22.94;35.94
36234;BME280;43467;50.890;5.982;2022-07-17T11:02:31;101386.09;;;23.03;35.88
36234;BME280;43467;50.890;5.982;2022-07-17T11:05:07;101385.38;;;23.12;35.44
36234;BME280;43467;50.890;5.982;2022-07-17T11:07:33;101389.28;;;23.08;35.16
36234;BME280;43467;50.890;5.982;2022-07-17T11:09:59;101399.38;;;23.17;35.28
36234;BME280;43467;50.890;5.982;2022-07-17T11:12:34;101384.13;;;23.16;35.20
36234;BME280;43467;50.890;5.982;2022-07-17T11:15:04;101386.13;;;23.25;35.43
36234;BME280;43467;50.890;5.982;2022-07-17T11:17:30;101387.59;;;23.18;35.54
36234;BME280;43467;50.890;5.982;2022-07-17T11:19:58;101387.94;;;23.25;35.23
36234;BME280;43467;50.890;5.982;2022-07-17T11:22:23;101380.44;;;23.28;35.90
36234;BME280;43467;50.890;5.982;2022-07-17T11:24:49;101377.63;;;23.41;35.64
36234;BME280;43467;50.890;5.982;2022-07-17T11:27:22;101372.09;;;23.42;35.21
36234;BME280;43467;50.890;5.982;2022-07-17T11:29:48;101373.06;;;23.41;34.77
36234;BME280;43467;50.890;5.982;2022-07-17T11:32:14;101371.25;;;23.42;34.81
36234;BME280;43467;50.890;5.982;2022-07-17T11:34:40;101366.22;;;23.48;35.46
36234;BME280;43467;50.890;5.982;2022-07-17T11:37:06;101359.81;;;23.49;34.33
36234;BME280;43467;50.890;5.982;2022-07-17T11:42:10;101359.22;;;23.46;34.35
36234;BME280;43467;50.890;5.982;2022-07-17T11:44:36;101363.75;;;23.56;34.76
36234;BME280;43467;50.890;5.982;2022-07-17T11:47:03;101363.75;;;23.56;34.47
36234;BME280;43467;50.890;5.982;2022-07-17T11:49:33;101352.69;;;23.59;34.71
36234;BME280;43467;50.890;5.982;2022-07-17T11:52:07;101352.78;;;23.69;35.32
36234;BME280;43467;50.890;5.982;2022-07-17T11:54:50;101360.41;;;23.64;34.22
36234;BME280;43467;50.890;5.982;2022-07-17T11:57:17;101356.69;;;23.76;34.79
36234;BME280;43467;50.890;5.982;2022-07-17T11:59:43;101363.16;;;23.85;34.67
36234;BME280;43467;50.890;5.982;2022-07-17T12:02:16;101357.28;;;23.91;33.55
36234;BME280;43467;50.890;5.982;2022-07-17T12:04:54;101350.34;;;23.98;33.81
36234;BME280;43467;50.890;5.982;2022-07-17T12:07:21;101345.81;;;23.98;33.87
36234;BME280;43467;50.890;5.982;2022-07-17T12:09:47;101359.91;;;24.02;33.32
36234;BME280;43467;50.890;5.982;2022-07-17T12:12:26;101350.91;;;24.13;34.12
36234;BME280;43467;50.890;5.982;2022-07-17T12:14:53;101343.03;;;24.21;33.44
36234;BME280;43467;50.890;5.982;2022-07-17T12:17:19;101339.69;;;24.28;33.58
36234;BME280;43467;50.890;5.982;2022-07-17T12:19:45;101336.63;;;24.42;34.13
36234;BME280;43467;50.890;5.982;2022-07-17T12:22:10;101333.13;;;24.51;32.82
36234;BME280;43467;50.890;5.982;2022-07-17T12:24:38;101339.22;;;24.44;31.97
36234;BME280;43467;50.890;5.982;2022-07-17T12:27:06;101337.41;;;24.33;32.01
36234;BME280;43467;50.890;5.982;2022-07-17T12:29:33;101328.38;;;24.44;31.37
36234;BME280;43467;50.890;5.982;2022-07-17T12:32:16;101326.97;;;24.49;31.45
36234;BME280;43467;50.890;5.982;2022-07-17T12:34:44;101323.44;;;24.49;31.59
36234;BME280;43467;50.890;5.982;2022-07-17T12:37:17;101334.50;;;24.67;31.61
36234;BME280;43467;50.890;5.982;2022-07-17T12:39:44;101332.38;;;24.70;31.90
36234;BME280;43467;50.890;5.982;2022-07-17T12:42:10;101319.47;;;24.83;32.18
36234;BME280;43467;50.890;5.982;2022-07-17T12:44:36;101320.75;;;24.79;31.76
36234;BME280;43467;50.890;5.982;2022-07-17T12:47:02;101314.00;;;24.94;31.71
36234;BME280;43467;50.890;5.982;2022-07-17T12:49:28;101315.03;;;25.03;31.93
36234;BME280;43467;50.890;5.982;2022-07-17T12:51:54;101312.91;;;25.07;31.74
36234;BME280;43467;50.890;5.982;2022-07-17T12:54:19;101314.09;;;25.14;31.64
36234;BME280;43467;50.890;5.982;2022-07-17T12:56:45;101305.31;;;25.31;31.54
36234;BME280;43467;50.890;5.982;2022-07-17T12:59:11;101298.94;;;25.51;31.01
36234;BME280;43467;50.890;5.982;2022-07-17T13:01:36;101297.22;;;25.60;30.47